createdAt,value
2022-11-15T00:01:19.259Z,9.92
2022-11-15T00:03:47.395Z,10.20
2022-11-15T00:06:17.126Z,10.13
2022-11-15T00:08:45.496Z,10.06
2022-11-15T00:11:14.797Z,10.21
2022-11-15T00:13:43.160Z,10.17
2022-11-15T00:16:12.621Z,10.06
2022-11-15T00:18:41.828Z,10.09
2022-11-15T00:21:13.914Z,10.17
2022-11-15T00:23:43.649Z,10.24
2022-11-15T00:26:14.236Z,10.31
2022-11-15T00:28:43.098Z,10.45
2022-11-15T00:31:13.574Z,10.33
2022-11-15T00:33:42.003Z,10.23
2022-11-15T00:36:11.785Z,10.09
2022-11-15T00:38:41.663Z,9.25
2022-11-15T00:41:11.384Z,9.55
2022-11-15T00:43:40.899Z,9.30
2022-11-15T00:46:10.744Z,9.38
2022-11-15T00:48:39.313Z,9.71
2022-11-15T00:51:07.702Z,9.79
2022-11-15T00:53:36.242Z,9.82
2022-11-15T00:56:04.694Z,9.52
2022-11-15T00:58:34.369Z,9.93
2022-11-15T01:01:10.105Z,10.02
2022-11-15T01:03:39.279Z,9.96
2022-11-15T01:06:08.682Z,9.93
2022-11-15T01:08:37.157Z,9.67
2022-11-15T01:11:06.327Z,8.85
2022-11-15T01:13:37.511Z,8.09
2022-11-15T01:16:10.002Z,8.22
2022-11-15T01:18:39.122Z,8.51
2022-11-15T01:21:09.218Z,9.27
2022-11-15T01:23:37.528Z,9.50
2022-11-15T01:26:07.531Z,9.67
2022-11-15T01:28:38.876Z,9.74
2022-11-15T01:31:10.749Z,9.58
2022-11-15T01:33:39.579Z,9.46
2022-11-15T01:36:09.302Z,9.52
2022-11-15T01:38:38.541Z,9.58
2022-11-15T01:41:06.923Z,9.47
2022-11-15T01:43:38.350Z,9.59
2022-11-15T01:46:11.069Z,9.45
2022-11-15T01:48:39.358Z,9.29
2022-11-15T01:51:09.892Z,9.38
2022-11-15T01:53:40.520Z,9.42
2022-11-15T01:56:09.235Z,9.52
2022-11-15T01:58:39.290Z,9.46
2022-11-15T02:01:07.800Z,9.40
2022-11-15T02:03:40.329Z,9.41
2022-11-15T02:06:08.809Z,9.07
2022-11-15T02:08:37.101Z,8.98
2022-11-15T02:11:06.959Z,9.15
2022-11-15T02:13:35.365Z,9.01
2022-11-15T02:16:12.531Z,9.21
2022-11-15T02:18:46.167Z,9.28
2022-11-15T02:21:21.714Z,9.37
2022-11-15T02:24:27.994Z,9.42
2022-11-15T02:27:18.823Z,9.34
2022-11-15T02:30:05.805Z,9.44
2022-11-15T02:32:39.002Z,8.88
2022-11-15T02:35:15.070Z,8.54
2022-11-15T02:37:47.423Z,8.05
2022-11-15T02:40:19.593Z,8.16
2022-11-15T02:43:09.823Z,8.19
2022-11-15T02:45:49.342Z,8.80
2022-11-15T02:48:19.519Z,8.99
2022-11-15T02:50:48.252Z,9.05
2022-11-15T02:53:16.881Z,9.10
2022-11-15T02:55:47.231Z,8.85
2022-11-15T02:58:41.497Z,8.35
2022-11-15T03:01:15.264Z,8.80
2022-11-15T03:03:51.551Z,8.98
2022-11-15T03:06:29.723Z,8.47
2022-11-15T03:09:05.998Z,8.47
2022-11-15T03:11:36.973Z,8.79
2022-11-15T03:14:12.480Z,9.04
2022-11-15T03:16:45.090Z,9.21
2022-11-15T03:19:19.217Z,8.84
2022-11-15T03:21:49.138Z,8.38
2022-11-15T03:24:23.267Z,8.44
2022-11-15T03:26:55.877Z,7.99
2022-11-15T03:29:26.483Z,8.11
2022-11-15T03:31:59.678Z,8.38
2022-11-15T03:34:33.807Z,7.88
2022-11-15T03:37:02.405Z,6.84
2022-11-15T03:39:31.196Z,6.81
2022-11-15T03:42:08.404Z,6.71
2022-11-15T03:44:42.075Z,6.90
2022-11-15T03:47:12.224Z,6.87
2022-11-15T03:49:45.598Z,7.71
2022-11-15T03:52:14.139Z,8.22
2022-11-15T03:54:51.282Z,8.47
2022-11-15T03:57:19.710Z,8.37
2022-11-15T03:59:48.080Z,8.29
2022-11-15T04:02:16.558Z,8.50
2022-11-15T04:04:46.296Z,8.09
2022-11-15T04:07:14.624Z,8.19
2022-11-15T04:09:57.495Z,8.02
2022-11-15T04:12:32.611Z,8.47
2022-11-15T04:15:11.133Z,8.61
2022-11-15T04:17:41.450Z,8.77
2022-11-15T04:20:31.710Z,8.55
2022-11-15T04:23:18.983Z,7.97
2022-11-15T04:25:47.571Z,8.35
2022-11-15T04:28:15.889Z,8.35
2022-11-15T04:30:44.266Z,8.47
2022-11-15T04:33:12.726Z,8.61
2022-11-15T04:35:43.183Z,8.61
2022-11-15T04:38:10.905Z,8.25
2022-11-15T04:40:39.723Z,8.02
2022-11-15T04:43:08.027Z,7.89
2022-11-15T04:45:36.386Z,8.00
2022-11-15T04:48:04.923Z,6.98
2022-11-15T04:50:33.234Z,6.27
2022-11-15T04:53:03.040Z,6.98
2022-11-15T04:55:31.432Z,6.66
2022-11-15T04:58:01.294Z,6.79
2022-11-15T05:00:30.256Z,7.27
2022-11-15T05:03:16.843Z,7.71
2022-11-15T05:05:45.323Z,8.23
2022-11-15T05:08:15.160Z,8.49
2022-11-15T05:10:43.590Z,7.47
2022-11-15T05:13:11.851Z,6.88
2022-11-15T05:15:40.206Z,6.47
2022-11-15T05:18:08.554Z,7.21
2022-11-15T05:20:37.047Z,7.44
2022-11-15T05:23:05.346Z,7.61
2022-11-15T05:25:35.219Z,7.87
2022-11-15T05:28:03.566Z,7.68
2022-11-15T05:30:32.320Z,7.40
2022-11-15T05:33:00.623Z,7.43
2022-11-15T05:35:32.980Z,7.52
2022-11-15T05:38:01.392Z,7.18
2022-11-15T05:40:30.789Z,6.97
2022-11-15T05:43:03.040Z,7.27
2022-11-15T05:45:31.650Z,6.97
2022-11-15T05:48:01.078Z,7.14
2022-11-15T05:50:29.899Z,7.41
2022-11-15T05:53:03.614Z,7.90
2022-11-15T05:55:33.603Z,8.28
2022-11-15T05:58:03.523Z,8.38
2022-11-15T06:00:31.891Z,8.18
2022-11-15T06:03:00.171Z,8.21
2022-11-15T06:05:28.429Z,7.96
2022-11-15T06:07:59.667Z,8.06
2022-11-15T06:10:28.000Z,8.61
2022-11-15T06:13:00.139Z,8.76
2022-11-15T06:15:29.830Z,8.80
2022-11-15T06:18:00.130Z,8.85
2022-11-15T06:20:29.325Z,8.33
2022-11-15T06:22:59.895Z,7.50
2022-11-15T06:25:28.324Z,7.97
2022-11-15T06:27:57.693Z,7.34
2022-11-15T06:30:27.697Z,7.56
2022-11-15T06:33:03.352Z,7.76
2022-11-15T06:35:32.379Z,7.25
2022-11-15T06:38:05.142Z,7.12
2022-11-15T06:40:36.164Z,7.25
2022-11-15T06:43:04.774Z,6.61
2022-11-15T06:45:33.337Z,6.82
2022-11-15T06:48:03.338Z,6.84
2022-11-15T06:50:31.651Z,7.01
2022-11-15T06:53:04.056Z,7.10
2022-11-15T06:55:32.464Z,7.54
2022-11-15T06:58:00.774Z,8.45
2022-11-15T07:00:29.116Z,8.39
2022-11-15T07:02:57.513Z,8.53
2022-11-15T07:05:27.293Z,8.80
2022-11-15T07:07:56.421Z,8.86
2022-11-15T07:10:26.357Z,9.03
2022-11-15T07:12:55.175Z,9.13
2022-11-15T07:15:25.844Z,9.20
2022-11-15T07:17:54.165Z,9.37
2022-11-15T07:20:22.392Z,9.31
2022-11-15T07:22:52.192Z,9.40
2022-11-15T07:25:20.558Z,9.45
2022-11-15T07:27:56.603Z,9.68
2022-11-15T07:30:25.965Z,9.54
2022-11-15T07:32:55.624Z,9.67
2022-11-15T07:35:24.156Z,9.83
2022-11-15T07:37:58.018Z,10.07
2022-11-15T07:40:27.023Z,10.15
2022-11-15T07:42:58.086Z,10.08
2022-11-15T07:45:27.865Z,9.82
2022-11-15T07:47:56.942Z,9.99
2022-11-15T07:50:26.231Z,9.93
2022-11-15T07:53:00.015Z,10.07
2022-11-15T07:55:30.685Z,10.13
2022-11-15T07:58:02.460Z,10.54
2022-11-15T08:00:31.008Z,10.58
2022-11-15T08:03:06.825Z,10.82
2022-11-15T08:05:35.674Z,10.92
2022-11-15T08:08:06.142Z,10.82
2022-11-15T08:10:39.375Z,11.00
2022-11-15T08:13:10.893Z,11.22
2022-11-15T08:15:39.581Z,11.37
2022-11-15T08:18:11.187Z,11.03
2022-11-15T08:20:39.756Z,11.12
2022-11-15T08:23:09.745Z,11.49
2022-11-15T08:25:38.189Z,11.73
2022-11-15T08:28:07.585Z,11.89
2022-11-15T08:30:38.511Z,11.81
2022-11-15T08:33:06.830Z,12.04
2022-11-15T08:35:35.216Z,12.34
2022-11-15T08:38:03.688Z,11.85
2022-11-15T08:40:33.365Z,12.21
2022-11-15T08:43:03.494Z,12.54
2022-11-15T08:45:32.004Z,12.42
2022-11-15T08:48:00.436Z,12.45
2022-11-15T08:50:28.744Z,12.11
2022-11-15T08:52:57.113Z,12.40
2022-11-15T08:55:25.404Z,12.04
2022-11-15T08:57:55.171Z,12.70
2022-11-15T09:00:23.998Z,12.82
2022-11-15T09:02:52.945Z,12.78
2022-11-15T09:05:21.363Z,13.56
2022-11-15T09:07:49.720Z,13.38
2022-11-15T09:10:18.231Z,13.72
2022-11-15T09:12:49.337Z,13.70
2022-11-15T09:15:20.733Z,13.74
2022-11-15T09:17:49.030Z,14.32
2022-11-15T09:20:17.785Z,14.51
2022-11-15T09:22:46.334Z,14.49
2022-11-15T09:25:14.642Z,14.72
2022-11-15T09:27:42.955Z,14.67
2022-11-15T09:30:12.334Z,14.87
2022-11-15T09:32:42.206Z,15.04
2022-11-15T09:35:10.727Z,15.06
2022-11-15T09:37:39.343Z,15.38
2022-11-15T09:40:11.094Z,15.08
2022-11-15T09:42:50.997Z,15.09
2022-11-15T09:45:23.025Z,15.27
2022-11-15T09:48:02.584Z,14.61
2022-11-15T09:50:36.467Z,14.47
2022-11-15T09:53:04.881Z,14.81
2022-11-15T09:55:39.241Z,14.82
2022-11-15T09:58:15.635Z,15.04
2022-11-15T10:00:48.518Z,15.23
2022-11-15T10:03:28.602Z,15.41
2022-11-15T10:06:00.165Z,15.74
2022-11-15T10:08:39.812Z,15.25
2022-11-15T10:11:36.288Z,15.13
2022-11-15T10:14:02.820Z,14.87
2022-11-15T10:17:09.220Z,15.80
2022-11-15T10:19:43.533Z,15.06
2022-11-15T10:22:20.862Z,15.33
2022-11-15T10:24:49.892Z,14.82
2022-11-15T10:27:19.355Z,15.10
2022-11-15T10:29:50.457Z,15.12
2022-11-15T10:32:20.675Z,15.79
2022-11-15T10:34:51.214Z,15.62
2022-11-15T10:37:30.152Z,16.01
2022-11-15T10:40:09.094Z,16.14
2022-11-15T10:42:37.470Z,15.43
2022-11-15T10:45:25.902Z,15.95
2022-11-15T10:47:54.274Z,15.53
2022-11-15T10:50:30.804Z,16.25
2022-11-15T10:52:59.368Z,16.67
2022-11-15T10:55:29.615Z,15.83
2022-11-15T10:58:01.748Z,15.80
2022-11-15T11:00:33.371Z,16.20
2022-11-15T11:03:04.372Z,16.85
2022-11-15T11:05:41.343Z,17.25
2022-11-15T11:08:24.020Z,17.31
2022-11-15T11:11:00.116Z,17.01
2022-11-15T11:13:31.918Z,17.11
2022-11-15T11:16:08.847Z,16.93
2022-11-15T11:18:41.287Z,17.46
2022-11-15T11:21:13.911Z,16.43
2022-11-15T11:23:50.055Z,16.57
2022-11-15T11:26:38.280Z,17.54
2022-11-15T11:29:20.330Z,17.67
2022-11-15T11:31:53.361Z,18.19
2022-11-15T11:34:33.152Z,17.73
2022-11-15T11:37:06.683Z,17.67
2022-11-15T11:39:43.203Z,17.62
2022-11-15T11:42:18.719Z,17.99
2022-11-15T11:44:56.682Z,16.96
2022-11-15T11:47:26.619Z,18.03
2022-11-15T11:49:58.354Z,17.98
2022-11-15T11:52:32.270Z,17.64
2022-11-15T11:55:05.033Z,18.21
2022-11-15T11:57:38.837Z,18.01
2022-11-15T12:00:16.639Z,18.13
2022-11-15T12:02:48.779Z,18.39
2022-11-15T12:05:22.225Z,17.97
2022-11-15T12:07:53.900Z,18.36
2022-11-15T12:10:25.608Z,18.54
2022-11-15T12:13:01.997Z,18.42
2022-11-15T12:15:34.358Z,18.59
2022-11-15T12:18:03.111Z,18.44
2022-11-15T12:20:34.323Z,18.62
2022-11-15T12:23:08.196Z,18.34
2022-11-15T12:25:48.078Z,18.27
2022-11-15T12:28:20.087Z,18.64
2022-11-15T12:30:52.489Z,18.64
2022-11-15T12:33:32.622Z,18.87
2022-11-15T12:36:02.348Z,18.61
2022-11-15T12:38:54.776Z,18.64
2022-11-15T12:41:24.184Z,18.39
2022-11-15T12:43:53.005Z,18.32
2022-11-15T12:46:24.794Z,18.31
2022-11-15T12:48:57.784Z,18.69
2022-11-15T12:52:06.868Z,18.60
2022-11-15T12:55:04.818Z,18.61
2022-11-15T12:57:41.199Z,18.68
2022-11-15T13:00:48.526Z,19.11
2022-11-15T13:03:24.214Z,18.40
2022-11-15T13:06:21.206Z,18.39
2022-11-15T13:08:51.958Z,18.93
2022-11-15T13:11:47.648Z,19.40
2022-11-15T13:14:58.612Z,19.44
2022-11-15T13:17:35.882Z,19.75
2022-11-15T13:20:20.513Z,18.89
2022-11-15T13:22:53.751Z,19.05
2022-11-15T13:25:44.644Z,19.36
2022-11-15T13:28:33.140Z,19.15
2022-11-15T13:31:02.916Z,18.83
2022-11-15T13:33:36.245Z,20.01
2022-11-15T13:36:08.482Z,19.29
2022-11-15T13:38:39.483Z,19.05
2022-11-15T13:41:21.065Z,19.72
2022-11-15T13:43:52.241Z,19.12
2022-11-15T13:46:22.763Z,19.15
2022-11-15T13:48:53.776Z,19.26
2022-11-15T13:51:26.896Z,19.58
2022-11-15T13:53:58.157Z,19.44
2022-11-15T13:56:28.051Z,19.65
2022-11-15T13:58:57.864Z,19.72
2022-11-15T14:01:34.131Z,19.20
2022-11-15T14:04:03.263Z,19.33
2022-11-15T14:06:32.515Z,19.43
2022-11-15T14:09:26.915Z,20.00
2022-11-15T14:11:56.726Z,19.54
2022-11-15T14:14:27.737Z,19.17
2022-11-15T14:16:57.953Z,19.29
2022-11-15T14:19:38.654Z,19.46
2022-11-15T14:22:10.079Z,19.68
2022-11-15T14:24:38.875Z,19.15
2022-11-15T14:27:34.041Z,19.52
2022-11-15T14:30:04.051Z,18.96
2022-11-15T14:32:43.434Z,19.35
2022-11-15T14:35:16.031Z,19.03
2022-11-15T14:37:44.519Z,18.82
2022-11-15T14:40:15.584Z,19.08
2022-11-15T14:42:44.686Z,19.36
2022-11-15T14:45:16.735Z,19.35
2022-11-15T14:47:45.367Z,19.09
2022-11-15T14:50:14.762Z,19.02
2022-11-15T14:52:43.738Z,18.94
2022-11-15T14:55:18.540Z,19.09
2022-11-15T14:57:46.846Z,18.87
2022-11-15T15:00:17.877Z,19.30
2022-11-15T15:02:47.331Z,19.20
2022-11-15T15:05:17.935Z,19.19
2022-11-15T15:07:46.238Z,19.32
2022-11-15T15:10:38.870Z,19.03
2022-11-15T15:13:03.796Z,18.88
2022-11-15T15:15:35.251Z,18.82
2022-11-15T15:18:03.754Z,18.66
2022-11-15T15:20:32.144Z,18.49
2022-11-15T15:23:00.472Z,18.38
2022-11-15T15:25:30.959Z,18.29
2022-11-15T15:27:59.271Z,17.87
2022-11-15T15:30:29.596Z,17.51
2022-11-15T15:32:59.563Z,16.64
2022-11-15T15:35:31.312Z,16.61
2022-11-15T15:37:59.759Z,16.47
2022-11-15T15:40:29.947Z,16.80
2022-11-15T15:42:58.269Z,16.98
2022-11-15T15:45:27.842Z,17.10
2022-11-15T15:47:56.148Z,17.02
2022-11-15T15:50:27.133Z,17.04
2022-11-15T15:52:56.841Z,16.92
2022-11-15T15:55:25.568Z,16.84
2022-11-15T15:57:54.057Z,16.82
2022-11-15T16:00:24.110Z,16.74
2022-11-15T16:02:52.590Z,16.58
2022-11-15T16:05:21.205Z,16.52
2022-11-15T16:07:50.974Z,16.50
2022-11-15T16:10:22.520Z,16.45
2022-11-15T16:12:51.124Z,16.35
2022-11-15T16:15:19.854Z,16.31
2022-11-15T16:17:51.846Z,16.12
2022-11-15T16:20:33.222Z,15.77
2022-11-15T16:23:08.714Z,15.84
2022-11-15T16:25:42.223Z,15.87
2022-11-15T16:28:18.416Z,15.84
2022-11-15T16:30:47.626Z,15.65
2022-11-15T16:33:21.253Z,15.43
2022-11-15T16:35:50.057Z,15.40
2022-11-15T16:38:19.883Z,15.39
2022-11-15T16:40:48.386Z,15.37
2022-11-15T16:43:16.956Z,15.39
2022-11-15T16:45:45.546Z,15.43
2022-11-15T16:48:23.197Z,15.55
2022-11-15T16:50:51.534Z,15.46
2022-11-15T16:53:21.380Z,15.50
2022-11-15T16:55:49.732Z,15.35
2022-11-15T16:58:18.053Z,14.86
2022-11-15T17:00:46.371Z,15.05
2022-11-15T17:03:14.718Z,14.53
2022-11-15T17:05:43.071Z,14.99
2022-11-15T17:08:11.458Z,14.67
2022-11-15T17:10:42.352Z,14.37
2022-11-15T17:13:13.636Z,13.99
2022-11-15T17:15:42.435Z,13.65
2022-11-15T17:18:12.293Z,12.99
2022-11-15T17:20:41.882Z,14.17
2022-11-15T17:23:14.594Z,14.53
2022-11-15T17:25:44.559Z,14.70
2022-11-15T17:28:13.010Z,14.65
2022-11-15T17:30:44.382Z,14.48
2022-11-15T17:33:12.747Z,13.64
2022-11-15T17:35:41.033Z,13.42
2022-11-15T17:38:09.487Z,13.20
2022-11-15T17:40:37.810Z,12.75
2022-11-15T17:43:08.009Z,13.43
2022-11-15T17:45:37.553Z,13.80
2022-11-15T17:48:06.070Z,13.67
2022-11-15T17:50:34.494Z,14.36
2022-11-15T17:53:02.828Z,14.42
2022-11-15T17:55:31.183Z,14.32
2022-11-15T17:57:59.554Z,14.47
2022-11-15T18:00:29.322Z,14.58
2022-11-15T18:02:58.359Z,14.58
2022-11-15T18:05:26.673Z,14.58
2022-11-15T18:07:54.938Z,14.64
2022-11-15T18:10:23.229Z,14.37
2022-11-15T18:12:51.595Z,13.96
2022-11-15T18:15:21.377Z,12.98
2022-11-15T18:17:51.197Z,12.78
2022-11-15T18:20:19.624Z,13.16
2022-11-15T18:22:48.204Z,13.65
2022-11-15T18:25:16.581Z,13.80
2022-11-15T18:27:44.872Z,13.93
2022-11-15T18:30:13.979Z,13.61
2022-11-15T18:32:42.995Z,13.61
2022-11-15T18:35:12.798Z,13.71
2022-11-15T18:37:41.185Z,12.71
2022-11-15T18:40:10.709Z,13.32
2022-11-15T18:42:39.055Z,12.90
2022-11-15T18:45:08.447Z,13.13
2022-11-15T18:47:37.664Z,13.25
2022-11-15T18:50:06.580Z,13.57
2022-11-15T18:52:36.283Z,13.95
2022-11-15T18:55:05.113Z,14.07
2022-11-15T18:57:33.378Z,14.16
2022-11-15T19:00:01.715Z,14.14
2022-11-15T19:02:30.049Z,14.27
2022-11-15T19:04:58.412Z,13.81
2022-11-15T19:07:27.058Z,14.05
2022-11-15T19:09:56.935Z,14.13
2022-11-15T19:12:25.271Z,14.21
2022-11-15T19:14:54.156Z,13.55
2022-11-15T19:17:22.482Z,12.85
2022-11-15T19:19:50.810Z,13.63
2022-11-15T19:22:19.105Z,13.89
2022-11-15T19:24:47.436Z,13.92
2022-11-15T19:27:17.147Z,13.24
2022-11-15T19:29:45.461Z,13.51
2022-11-15T19:32:13.744Z,13.62
2022-11-15T19:34:42.027Z,13.70
2022-11-15T19:37:10.385Z,13.64
2022-11-15T19:39:41.220Z,12.41
2022-11-15T19:42:09.781Z,11.98
2022-11-15T19:44:39.513Z,12.71
2022-11-15T19:47:09.358Z,13.18
2022-11-15T19:49:37.755Z,13.20
2022-11-15T19:52:06.199Z,13.50
2022-11-15T19:54:34.611Z,13.60
2022-11-15T19:57:02.943Z,13.60
2022-11-15T19:59:31.243Z,13.57
2022-11-15T20:02:00.935Z,13.39
2022-11-15T20:04:29.747Z,13.26
2022-11-15T20:06:58.115Z,13.17
2022-11-15T20:09:26.495Z,13.39
2022-11-15T20:11:54.822Z,12.42
2022-11-15T20:14:24.163Z,12.00
2022-11-15T20:16:54.374Z,12.59
2022-11-15T20:19:24.602Z,12.34
2022-11-15T20:21:52.979Z,12.54
2022-11-15T20:24:21.403Z,12.27
2022-11-15T20:26:49.982Z,12.69
2022-11-15T20:29:18.416Z,12.99
2022-11-15T20:31:46.910Z,13.02
2022-11-15T20:34:15.257Z,12.66
2022-11-15T20:36:45.117Z,12.90
2022-11-15T20:39:13.451Z,12.77
2022-11-15T20:41:41.983Z,12.64
2022-11-15T20:44:10.408Z,13.01
2022-11-15T20:46:38.960Z,13.15
2022-11-15T20:49:07.461Z,13.24
2022-11-15T20:51:36.926Z,13.32
2022-11-15T20:54:07.016Z,13.12
2022-11-15T20:56:35.386Z,13.12
2022-11-15T20:59:03.837Z,13.22
2022-11-15T21:01:32.322Z,13.21
2022-11-15T21:04:00.839Z,13.28
2022-11-15T21:06:29.323Z,13.29
2022-11-15T21:09:15.218Z,13.21
2022-11-15T21:12:02.638Z,13.37
2022-11-15T21:14:31.276Z,13.37
2022-11-15T21:16:59.669Z,13.46
2022-11-15T21:19:33.995Z,13.47
2022-11-15T21:22:06.312Z,13.16
2022-11-15T21:24:34.690Z,12.78
2022-11-15T21:27:04.481Z,12.86
2022-11-15T21:29:38.967Z,13.05
2022-11-15T21:32:08.421Z,13.20
2022-11-15T21:34:37.100Z,13.10
2022-11-15T21:37:06.120Z,13.25
2022-11-15T21:39:34.630Z,13.25
2022-11-15T21:42:04.688Z,12.97
2022-11-15T21:44:33.319Z,12.99
2022-11-15T21:47:01.717Z,13.43
2022-11-15T21:49:30.078Z,13.49
2022-11-15T21:51:58.453Z,13.39
2022-11-15T21:54:26.815Z,13.36
2022-11-15T21:56:55.133Z,13.11
2022-11-15T21:59:24.944Z,13.19
2022-11-15T22:02:07.252Z,13.46
2022-11-15T22:04:35.567Z,13.62
2022-11-15T22:07:03.931Z,13.74
2022-11-15T22:09:32.288Z,13.24
2022-11-15T22:12:00.712Z,13.05
2022-11-15T22:14:30.771Z,12.90
2022-11-15T22:16:59.075Z,12.81
2022-11-15T22:19:27.582Z,13.40
2022-11-15T22:21:56.122Z,13.28
2022-11-15T22:24:24.611Z,12.69
2022-11-15T22:26:53.141Z,12.25
2022-11-15T22:29:21.582Z,12.32
2022-11-15T22:31:51.493Z,12.41
2022-11-15T22:34:19.974Z,12.60
2022-11-15T22:37:18.363Z,12.52
2022-11-15T22:39:36.885Z,12.24
2022-11-15T22:42:05.536Z,12.77
2022-11-15T22:44:34.088Z,12.94
2022-11-15T22:47:03.984Z,12.96
2022-11-15T22:49:32.438Z,12.76
2022-11-15T22:52:00.962Z,12.63
2022-11-15T22:54:29.667Z,12.26
2022-11-15T22:56:58.207Z,12.66
2022-11-15T22:59:27.350Z,12.47
2022-11-15T23:01:55.774Z,12.38
2022-11-15T23:04:25.638Z,12.38
2022-11-15T23:06:54.173Z,12.45
2022-11-15T23:09:22.636Z,12.15
2022-11-15T23:12:08.656Z,11.74
2022-11-15T23:14:37.246Z,11.99
2022-11-15T23:17:05.711Z,11.69
2022-11-15T23:19:35.581Z,11.90
2022-11-15T23:22:21.585Z,11.79
2022-11-15T23:24:51.698Z,11.99
2022-11-15T23:27:20.762Z,12.12
2022-11-15T23:30:06.624Z,12.16
2022-11-15T23:32:52.576Z,11.81
2022-11-15T23:35:23.872Z,11.19
2022-11-15T23:37:52.415Z,10.53
2022-11-15T23:40:20.936Z,10.27
2022-11-15T23:42:50.090Z,10.39
2022-11-15T23:45:19.057Z,10.25
2022-11-15T23:47:47.584Z,10.47
2022-11-15T23:50:16.205Z,10.28
2022-11-15T23:52:46.088Z,10.49
2022-11-15T23:55:14.582Z,10.69
2022-11-15T23:57:43.092Z,10.18
